createdAt,value
2019-02-09T00:23:24.730Z,6.78
2019-02-09T00:28:47.969Z,6.76
2019-02-09T00:34:11.267Z,6.75
2019-02-09T00:39:22.642Z,6.71
2019-02-09T00:44:27.612Z,6.61
2019-02-09T00:49:51.367Z,6.60
2019-02-09T00:55:15.075Z,6.62
2019-02-09T01:00:38.388Z,6.70
2019-02-09T01:06:23.068Z,6.67
2019-02-09T01:11:46.392Z,6.67
2019-02-09T01:17:09.611Z,6.65
2019-02-09T01:22:13.922Z,6.65
2019-02-09T01:38:17.821Z,6.42
2019-02-09T01:43:22.087Z,6.39
2019-02-09T01:48:26.636Z,6.34
2019-02-09T02:09:37.858Z,6.29
2019-02-09T02:14:42.064Z,6.26
2019-02-09T02:25:08.281Z,6.28
2019-02-09T02:30:53.635Z,6.32
2019-02-09T02:35:58.142Z,6.30
2019-02-09T02:41:21.437Z,6.36
2019-02-09T02:46:25.659Z,6.45
2019-02-09T02:56:59.976Z,6.38
2019-02-09T03:02:05.734Z,6.37
2019-02-09T03:07:10.208Z,6.38
2019-02-09T03:12:14.504Z,6.51
2019-02-09T03:17:37.800Z,6.61
2019-02-09T03:22:42.193Z,6.61
2019-02-09T03:27:46.469Z,6.80
2019-02-09T03:33:09.802Z,6.92
2019-02-09T03:43:43.212Z,6.93
2019-02-09T03:48:50.139Z,7.15
2019-02-09T03:53:54.730Z,7.30
2019-02-09T03:59:00.920Z,7.32
2019-02-09T04:09:34.886Z,7.45
2019-02-09T04:14:58.186Z,7.35
2019-02-09T04:20:21.895Z,7.32
2019-02-09T04:25:26.339Z,7.26
2019-02-09T04:31:10.694Z,7.22
2019-02-09T04:36:15.352Z,7.21
2019-02-09T04:41:19.581Z,7.24
2019-02-09T04:46:24.099Z,7.18
2019-02-09T04:51:28.438Z,7.09
2019-02-09T04:56:32.670Z,7.14
2019-02-09T05:01:36.915Z,7.00
2019-02-09T05:11:50.699Z,7.08
2019-02-09T05:16:54.993Z,7.07
2019-02-09T05:21:59.221Z,7.08
2019-02-09T05:32:13.649Z,7.07
2019-02-09T05:37:17.880Z,7.05
2019-02-09T05:42:22.112Z,6.94
2019-02-09T05:47:26.388Z,6.80
2019-02-09T05:52:49.788Z,6.79
2019-02-09T05:57:54.041Z,6.77
2019-02-09T06:03:17.335Z,6.72
2019-02-09T06:08:21.566Z,6.78
2019-02-09T06:13:44.872Z,6.75
2019-02-09T06:18:49.472Z,6.66
2019-02-09T06:23:53.719Z,6.60
2019-02-09T06:28:57.999Z,6.54
2019-02-09T06:34:02.266Z,6.52
2019-02-09T06:39:47.484Z,6.52
2019-02-09T06:44:51.785Z,6.47
2019-02-09T06:49:56.148Z,6.47
2019-02-09T07:00:29.448Z,6.35
2019-02-09T07:05:33.678Z,6.37
2019-02-09T07:10:38.243Z,6.42
2019-02-09T07:16:01.616Z,6.40
2019-02-09T07:21:45.408Z,6.49
2019-02-09T07:26:49.677Z,6.51
2019-02-09T07:37:16.237Z,6.46
2019-02-09T07:48:09.697Z,6.66
2019-02-09T07:53:33.304Z,6.84
2019-02-09T07:58:56.641Z,6.96
2019-02-09T08:04:00.883Z,7.10
2019-02-09T08:09:24.183Z,7.34
2019-02-09T08:14:48.163Z,7.32
2019-02-09T08:19:54.194Z,7.32
2019-02-09T08:25:19.075Z,7.54
2019-02-09T08:31:03.891Z,7.62
2019-02-09T08:36:08.431Z,7.83
2019-02-09T08:46:22.951Z,8.07
2019-02-09T08:56:56.128Z,8.29
2019-02-09T09:02:00.393Z,8.29
2019-02-09T09:12:54.281Z,8.21
2019-02-09T09:17:58.621Z,8.04
2019-02-09T09:23:21.937Z,8.14
2019-02-09T09:28:26.233Z,8.32
2019-02-09T09:39:01.017Z,8.43
2019-02-09T09:44:16.859Z,8.72
2019-02-09T09:49:32.663Z,8.67
2019-02-09T09:54:37.084Z,8.89
2019-02-09T10:00:02.110Z,8.71
2019-02-09T10:05:46.670Z,8.91
2019-02-09T10:11:10.197Z,9.27
2019-02-09T10:16:33.505Z,9.39
2019-02-09T10:32:55.218Z,9.31
2019-02-09T10:38:18.532Z,9.38
2019-02-09T10:48:45.909Z,9.02
2019-02-09T10:54:01.787Z,9.07
2019-02-09T10:59:06.063Z,9.03
2019-02-09T11:04:49.719Z,8.90
2019-02-09T11:09:54.346Z,8.74
2019-02-09T11:15:18.296Z,8.82
2019-02-09T11:26:11.151Z,8.90
2019-02-09T11:36:44.377Z,9.11
2019-02-09T11:47:35.981Z,9.12
2019-02-09T11:52:51.555Z,9.17
2019-02-09T11:58:07.889Z,9.37
2019-02-09T12:03:14.915Z,9.40
2019-02-09T12:18:57.315Z,10.09
2019-02-09T12:24:20.747Z,9.94
2019-02-09T12:29:25.059Z,10.15
2019-02-09T12:34:48.535Z,10.01
2019-02-09T12:45:02.794Z,9.73
2019-02-09T12:50:07.532Z,9.70
2019-02-09T12:55:32.524Z,9.63
2019-02-09T13:00:37.938Z,10.12
2019-02-09T13:05:42.412Z,10.29
2019-02-09T13:10:46.758Z,10.35
2019-02-09T13:15:51.570Z,10.30
2019-02-09T13:20:56.236Z,10.30
2019-02-09T13:26:00.595Z,10.21
2019-02-09T13:31:05.035Z,10.13
2019-02-09T13:36:28.359Z,10.04
2019-02-09T13:41:51.646Z,9.85
2019-02-09T13:57:34.984Z,9.61
2019-02-09T14:07:49.324Z,9.69
2019-02-09T14:18:43.850Z,9.63
2019-02-09T14:29:18.008Z,9.60
2019-02-09T14:34:22.317Z,9.70
2019-02-09T14:39:45.589Z,9.45
2019-02-09T14:49:59.418Z,9.04
2019-02-09T14:55:03.884Z,8.86
2019-02-09T15:05:58.472Z,8.84
2019-02-09T15:11:02.733Z,8.92
2019-02-09T15:16:49.145Z,8.92
2019-02-09T15:21:53.516Z,8.93
2019-02-09T15:26:57.768Z,9.01
2019-02-09T15:32:02.010Z,9.01
2019-02-09T15:37:06.250Z,9.02
2019-02-09T15:53:28.490Z,8.84
2019-02-09T16:04:02.070Z,8.70
2019-02-09T16:09:47.346Z,8.63
2019-02-09T16:14:51.621Z,8.52
2019-02-09T16:19:55.858Z,8.45
2019-02-09T16:25:00.413Z,8.38
2019-02-09T16:30:24.407Z,8.25
2019-02-09T16:35:47.696Z,8.16
2019-02-09T16:40:51.987Z,8.15
2019-02-09T16:52:04.912Z,8.03
2019-02-09T17:02:38.354Z,7.84
2019-02-09T17:13:11.894Z,7.75
2019-02-09T17:18:35.507Z,7.78
2019-02-09T17:23:58.857Z,7.81
2019-02-09T17:34:32.593Z,7.59
2019-02-09T17:39:55.900Z,7.54
2019-02-09T17:45:00.204Z,7.48
2019-02-09T17:55:54.017Z,7.36
2019-02-09T18:06:35.676Z,7.30
2019-02-09T18:11:40.239Z,7.21
2019-02-09T18:22:33.012Z,7.09
2019-02-09T18:27:56.329Z,7.08
2019-02-09T18:33:01.588Z,7.11
2019-02-09T18:38:05.898Z,7.11
2019-02-09T18:48:59.535Z,7.21
2019-02-09T18:54:03.825Z,7.19
2019-02-09T18:59:27.385Z,7.12
2019-02-09T19:10:00.920Z,7.11
2019-02-09T19:15:45.860Z,7.09
2019-02-09T19:26:42.836Z,6.93
2019-02-09T19:36:57.368Z,6.87
2019-02-09T19:52:40.718Z,6.82
2019-02-09T19:57:44.956Z,6.78
2019-02-09T20:08:40.743Z,6.94
2019-02-09T20:13:45.026Z,6.84
2019-02-09T20:24:38.338Z,6.96
2019-02-09T20:29:42.657Z,6.98
2019-02-09T20:35:06.719Z,6.98
2019-02-09T20:40:53.637Z,7.02
2019-02-09T20:51:47.273Z,7.04
2019-02-09T20:57:10.609Z,7.02
2019-02-09T21:02:33.896Z,7.03
2019-02-09T21:07:38.152Z,7.00
2019-02-09T21:12:42.412Z,6.99
2019-02-09T21:28:45.440Z,6.94
2019-02-09T21:33:49.726Z,6.86
2019-02-09T21:39:13.306Z,6.88
2019-02-09T21:44:18.015Z,6.90
2019-02-09T21:54:51.453Z,6.96
2019-02-09T21:59:56.192Z,6.96
2019-02-09T22:05:00.844Z,6.98
2019-02-09T22:10:45.301Z,6.88
2019-02-09T22:15:49.607Z,6.90
2019-02-09T22:20:54.194Z,6.93
2019-02-09T22:25:58.477Z,6.91
2019-02-09T22:36:51.565Z,7.06
2019-02-09T22:42:15.106Z,7.08
2019-02-09T22:47:38.357Z,7.17
2019-02-09T22:52:42.601Z,7.21
2019-02-09T22:58:26.643Z,7.15
2019-02-09T23:03:52.480Z,7.14
2019-02-09T23:09:17.460Z,7.32
2019-02-09T23:14:41.128Z,7.33
2019-02-09T23:19:45.466Z,7.35
2019-02-09T23:24:49.706Z,7.45
2019-02-09T23:29:54.414Z,7.45
2019-02-09T23:34:59.349Z,7.41
2019-02-09T23:45:33.294Z,7.48
2019-02-09T23:50:48.989Z,7.48
2019-02-09T23:55:53.548Z,7.52
